createdAt,value
2023-04-24T00:01:03.525Z,9.60
2023-04-24T00:03:30.451Z,9.60
2023-04-24T00:05:57.320Z,9.60
2023-04-24T00:08:24.901Z,9.50
2023-04-24T00:10:53.136Z,9.50
2023-04-24T00:13:19.919Z,9.40
2023-04-24T00:15:49.416Z,9.40
2023-04-24T00:18:16.093Z,9.40
2023-04-24T00:20:44.592Z,9.40
2023-04-24T00:23:11.393Z,9.40
2023-04-24T00:25:38.171Z,9.40
2023-04-24T00:28:04.905Z,9.40
2023-04-24T00:30:31.680Z,9.30
2023-04-24T00:32:59.050Z,9.30
2023-04-24T00:35:25.867Z,9.20
2023-04-24T00:37:52.563Z,9.20
2023-04-24T00:40:19.317Z,9.20
2023-04-24T00:42:46.349Z,9.10
2023-04-24T00:45:14.049Z,9.10
2023-04-24T00:47:41.779Z,9.10
2023-04-24T00:50:09.134Z,9.10
2023-04-24T00:52:35.991Z,9.10
2023-04-24T00:55:02.778Z,9.00
2023-04-24T00:57:29.619Z,9.00
2023-04-24T00:59:56.466Z,9.10
2023-04-24T01:02:24.176Z,9.10
2023-04-24T01:04:52.304Z,9.10
2023-04-24T01:07:22.018Z,9.20
2023-04-24T01:09:51.894Z,9.20
2023-04-24T01:12:19.341Z,9.20
2023-04-24T01:14:46.765Z,9.20
2023-04-24T01:17:13.522Z,9.10
2023-04-24T01:19:41.239Z,9.20
2023-04-24T01:22:15.434Z,9.20
2023-04-24T01:24:42.991Z,9.20
2023-04-24T01:27:11.123Z,9.20
2023-04-24T01:29:38.022Z,9.20
2023-04-24T01:32:06.580Z,9.20
2023-04-24T01:34:33.707Z,9.20
2023-04-24T01:37:00.797Z,9.20
2023-04-24T01:39:29.606Z,9.20
2023-04-24T01:41:57.354Z,9.10
2023-04-24T01:44:24.582Z,9.10
2023-04-24T01:46:51.439Z,9.10
2023-04-24T01:49:18.734Z,9.10
2023-04-24T01:51:45.792Z,9.20
2023-04-24T01:54:12.691Z,9.20
2023-04-24T01:56:43.611Z,9.20
2023-04-24T01:59:14.112Z,9.20
2023-04-24T02:01:40.927Z,9.20
2023-04-24T02:04:08.815Z,9.30
2023-04-24T02:06:36.032Z,9.30
2023-04-24T02:09:04.163Z,9.30
2023-04-24T02:11:31.253Z,9.30
2023-04-24T02:13:57.990Z,9.40
2023-04-24T02:16:24.797Z,9.40
2023-04-24T02:18:51.452Z,9.30
2023-04-24T02:21:18.109Z,9.40
2023-04-24T02:23:44.763Z,9.40
2023-04-24T02:26:11.939Z,9.40
2023-04-24T02:28:38.593Z,9.40
2023-04-24T02:31:06.228Z,9.40
2023-04-24T02:33:32.903Z,9.40
2023-04-24T02:35:59.616Z,9.40
2023-04-24T02:38:26.245Z,9.50
2023-04-24T02:40:53.132Z,9.50
2023-04-24T02:43:19.893Z,9.50
2023-04-24T02:45:46.639Z,9.60
2023-04-24T02:48:13.440Z,9.60
2023-04-24T02:50:40.104Z,9.60
2023-04-24T02:53:06.708Z,9.70
2023-04-24T02:55:33.447Z,9.80
2023-04-24T02:58:00.036Z,9.80
2023-04-24T03:00:26.765Z,9.90
2023-04-24T03:02:54.320Z,10.00
2023-04-24T03:05:21.235Z,10.00
2023-04-24T03:07:48.507Z,10.10
2023-04-24T03:10:15.148Z,10.20
2023-04-24T03:12:41.728Z,10.20
2023-04-24T03:15:09.005Z,10.30
2023-04-24T03:17:36.368Z,10.40
2023-04-24T03:20:03.669Z,10.40
2023-04-24T03:22:30.320Z,10.50
2023-04-24T03:24:57.649Z,10.50
2023-04-24T03:27:27.754Z,10.50
2023-04-24T03:29:57.429Z,10.50
2023-04-24T03:32:24.274Z,10.50
2023-04-24T03:34:51.375Z,10.50
2023-04-24T03:37:18.175Z,10.60
2023-04-24T03:39:45.166Z,10.60
2023-04-24T03:42:12.113Z,10.60
2023-04-24T03:44:38.702Z,10.60
2023-04-24T03:47:05.852Z,10.60
2023-04-24T03:49:32.689Z,10.60
2023-04-24T03:51:59.327Z,10.60
2023-04-24T03:54:26.014Z,10.60
2023-04-24T03:56:52.683Z,10.60
2023-04-24T03:59:19.290Z,10.70
2023-04-24T04:01:46.423Z,10.70
2023-04-24T04:04:13.459Z,10.60
2023-04-24T04:06:40.289Z,10.70
2023-04-24T04:09:08.084Z,10.70
2023-04-24T04:11:34.730Z,10.70
2023-04-24T04:14:01.402Z,10.60
2023-04-24T04:16:28.103Z,10.70
2023-04-24T04:18:54.773Z,10.70
2023-04-24T04:21:21.618Z,10.70
2023-04-24T04:23:49.063Z,10.70
2023-04-24T04:26:15.816Z,10.70
2023-04-24T04:28:42.544Z,10.70
2023-04-24T04:31:09.257Z,10.70
2023-04-24T04:33:37.079Z,10.70
2023-04-24T04:36:04.764Z,10.80
2023-04-24T04:38:31.491Z,10.80
2023-04-24T04:40:58.509Z,10.80
2023-04-24T04:43:25.785Z,10.80
2023-04-24T04:45:53.017Z,10.80
2023-04-24T04:48:19.933Z,10.80
2023-04-24T04:50:46.741Z,10.90
2023-04-24T04:53:13.334Z,10.90
2023-04-24T04:55:40.087Z,10.90
2023-04-24T04:58:06.728Z,11.00
2023-04-24T05:00:36.673Z,11.00
2023-04-24T05:03:19.308Z,11.10
2023-04-24T05:05:47.713Z,11.20
2023-04-24T05:08:25.710Z,11.20
2023-04-24T05:10:54.384Z,11.30
2023-04-24T05:13:28.200Z,11.30
2023-04-24T05:16:02.817Z,11.40
2023-04-24T05:18:29.449Z,11.50
2023-04-24T05:20:56.675Z,11.50
2023-04-24T05:23:23.291Z,11.60
2023-04-24T05:25:50.088Z,11.70
2023-04-24T05:28:16.932Z,11.70
2023-04-24T05:30:43.537Z,11.80
2023-04-24T05:33:10.999Z,11.90
2023-04-24T05:35:37.744Z,11.90
2023-04-24T05:38:04.426Z,12.00
2023-04-24T05:40:31.227Z,12.00
2023-04-24T05:42:57.889Z,12.00
2023-04-24T05:45:24.500Z,12.00
2023-04-24T05:47:53.386Z,12.00
2023-04-24T05:50:20.111Z,12.10
2023-04-24T05:52:46.726Z,12.10
2023-04-24T05:55:14.481Z,12.20
2023-04-24T05:57:41.236Z,12.30
2023-04-24T06:00:09.407Z,12.30
2023-04-24T06:02:36.242Z,12.40
2023-04-24T06:05:03.196Z,12.40
2023-04-24T06:07:30.062Z,12.50
2023-04-24T06:09:57.708Z,12.50
2023-04-24T06:12:24.514Z,12.60
2023-04-24T06:14:51.137Z,12.60
2023-04-24T06:17:17.972Z,12.70
2023-04-24T06:19:45.149Z,12.80
2023-04-24T06:22:12.079Z,12.80
2023-04-24T06:24:38.813Z,12.80
2023-04-24T06:27:05.494Z,12.80
2023-04-24T06:29:32.325Z,12.90
2023-04-24T06:31:59.449Z,13.00
2023-04-24T06:34:26.518Z,13.10
2023-04-24T06:36:53.276Z,13.20
2023-04-24T06:39:19.879Z,13.20
2023-04-24T06:41:46.547Z,13.30
2023-04-24T06:44:13.269Z,13.30
2023-04-24T06:46:41.086Z,13.40
2023-04-24T06:49:08.528Z,13.40
2023-04-24T06:51:35.173Z,13.40
2023-04-24T06:54:02.876Z,13.40
2023-04-24T06:56:30.484Z,13.30
2023-04-24T06:58:57.162Z,13.40
2023-04-24T07:01:24.061Z,13.30
2023-04-24T07:03:51.366Z,13.30
2023-04-24T07:06:19.658Z,13.40
2023-04-24T07:08:46.522Z,13.40
2023-04-24T07:11:13.149Z,13.50
2023-04-24T07:13:42.905Z,13.50
2023-04-24T07:16:10.677Z,13.60
2023-04-24T07:18:38.466Z,13.70
2023-04-24T07:21:05.168Z,13.70
2023-04-24T07:23:32.452Z,13.80
2023-04-24T07:25:59.205Z,13.90
2023-04-24T07:28:26.407Z,14.00
2023-04-24T07:30:55.025Z,14.10
2023-04-24T07:33:21.908Z,14.20
2023-04-24T07:35:48.983Z,14.20
2023-04-24T07:38:15.705Z,14.20
2023-04-24T07:40:42.805Z,14.40
2023-04-24T07:43:09.515Z,14.40
2023-04-24T07:45:38.374Z,14.50
2023-04-24T07:48:05.329Z,14.60
2023-04-24T07:50:32.660Z,14.70
2023-04-24T07:52:59.425Z,14.80
2023-04-24T07:55:28.113Z,14.80
2023-04-24T07:57:55.053Z,14.90
2023-04-24T08:00:22.123Z,15.10
2023-04-24T08:02:49.019Z,15.30
2023-04-24T08:05:16.115Z,15.30
2023-04-24T08:07:47.145Z,15.30
2023-04-24T08:10:14.537Z,15.40
2023-04-24T08:12:42.520Z,15.40
2023-04-24T08:15:09.615Z,15.40
2023-04-24T08:17:36.808Z,15.50
2023-04-24T08:20:11.325Z,15.60
2023-04-24T08:22:38.253Z,15.70
2023-04-24T08:25:05.552Z,15.90
2023-04-24T08:27:32.354Z,16.00
2023-04-24T08:29:59.969Z,16.20
2023-04-24T08:32:29.825Z,16.20
2023-04-24T08:35:00.044Z,16.30
2023-04-24T08:37:27.659Z,16.40
2023-04-24T08:39:54.537Z,16.50
2023-04-24T08:42:21.934Z,16.30
2023-04-24T08:44:50.724Z,16.30
2023-04-24T08:47:17.631Z,16.30
2023-04-24T08:49:44.978Z,16.20
2023-04-24T08:52:14.024Z,16.20
2023-04-24T08:54:41.331Z,16.10
2023-04-24T08:57:10.559Z,16.10
2023-04-24T08:59:37.604Z,16.20
2023-04-24T09:02:05.811Z,16.30
2023-04-24T09:04:36.098Z,16.20
2023-04-24T09:07:06.119Z,16.30
2023-04-24T09:09:34.056Z,16.50
2023-04-24T09:12:01.797Z,16.70
2023-04-24T09:14:29.132Z,16.90
2023-04-24T09:16:55.952Z,17.10
2023-04-24T09:19:23.464Z,17.10
2023-04-24T09:21:50.063Z,17.00
2023-04-24T09:24:23.873Z,16.70
2023-04-24T09:27:02.442Z,16.60
2023-04-24T09:29:29.465Z,16.50
2023-04-24T09:31:56.261Z,16.60
2023-04-24T09:34:27.616Z,16.80
2023-04-24T09:36:55.396Z,17.00
2023-04-24T09:39:22.253Z,17.20
2023-04-24T09:41:59.715Z,17.20
2023-04-24T09:44:29.072Z,17.30
2023-04-24T09:46:58.126Z,17.40
2023-04-24T09:49:26.021Z,17.40
2023-04-24T09:51:53.218Z,17.40
2023-04-24T09:54:22.174Z,17.40
2023-04-24T09:56:51.327Z,17.40
2023-04-24T09:59:19.822Z,17.50
2023-04-24T10:01:47.534Z,17.60
2023-04-24T10:04:18.412Z,17.60
2023-04-24T10:06:46.262Z,17.60
2023-04-24T10:09:14.775Z,17.60
2023-04-24T10:11:44.602Z,17.40
2023-04-24T10:14:14.294Z,17.30
2023-04-24T10:16:41.951Z,17.10
2023-04-24T10:19:08.978Z,16.90
2023-04-24T10:21:38.435Z,16.70
2023-04-24T10:24:08.462Z,16.60
2023-04-24T10:26:35.923Z,16.50
2023-04-24T10:29:02.837Z,16.50
2023-04-24T10:31:34.100Z,16.60
2023-04-24T10:34:02.106Z,16.70
2023-04-24T10:36:33.400Z,16.90
2023-04-24T10:39:03.125Z,17.00
2023-04-24T10:41:31.607Z,17.20
2023-04-24T10:44:13.894Z,17.40
2023-04-24T10:46:45.470Z,17.30
2023-04-24T10:49:12.446Z,17.20
2023-04-24T10:51:50.498Z,17.10
2023-04-24T10:54:35.048Z,17.10
2023-04-24T10:57:22.991Z,17.30
2023-04-24T10:59:51.804Z,17.40
2023-04-24T11:02:19.498Z,17.50
2023-04-24T11:04:47.321Z,17.90
2023-04-24T11:07:14.654Z,18.50
2023-04-24T11:09:44.253Z,19.00
2023-04-24T11:12:12.596Z,19.40
2023-04-24T11:14:58.071Z,19.60
2023-04-24T11:17:38.614Z,19.90
2023-04-24T11:20:26.122Z,19.80
2023-04-24T11:22:58.859Z,19.80
2023-04-24T11:25:26.088Z,19.80
2023-04-24T11:28:05.350Z,19.90
2023-04-24T11:30:33.343Z,20.20
2023-04-24T11:33:05.380Z,20.40
2023-04-24T11:35:38.438Z,20.70
2023-04-24T11:40:35.975Z,20.90
2023-04-24T11:43:07.821Z,21.10
2023-04-24T11:45:35.097Z,21.10
2023-04-24T11:48:03.657Z,21.00
2023-04-24T11:50:30.610Z,20.30
2023-04-24T11:52:57.698Z,20.10
2023-04-24T11:55:25.320Z,19.80
2023-04-24T11:58:02.555Z,19.50
2023-04-24T12:00:35.285Z,19.30
2023-04-24T12:03:07.076Z,19.20
2023-04-24T12:05:34.283Z,19.10
2023-04-24T12:08:01.169Z,18.80
2023-04-24T12:10:29.741Z,18.30
2023-04-24T12:12:58.325Z,17.70
2023-04-24T12:15:25.606Z,17.10
2023-04-24T12:17:53.892Z,16.60
2023-04-24T12:20:30.334Z,16.70
2023-04-24T12:23:01.743Z,16.80
2023-04-24T12:25:33.933Z,17.20
2023-04-24T12:28:06.940Z,17.50
2023-04-24T12:30:36.579Z,17.80
2023-04-24T12:33:04.524Z,18.10
2023-04-24T12:35:34.804Z,18.10
2023-04-24T12:38:09.983Z,18.20
2023-04-24T12:40:36.965Z,18.30
2023-04-24T12:43:13.643Z,18.40
2023-04-24T12:45:40.536Z,18.60
2023-04-24T12:48:07.152Z,18.60
2023-04-24T12:50:33.970Z,18.30
2023-04-24T12:53:01.242Z,18.30
2023-04-24T12:55:27.879Z,18.20
2023-04-24T12:57:56.323Z,18.10
2023-04-24T13:00:23.286Z,18.50
2023-04-24T13:02:50.319Z,18.70
2023-04-24T13:05:17.193Z,18.90
2023-04-24T13:07:43.958Z,18.90
2023-04-24T13:10:10.877Z,18.90
2023-04-24T13:12:38.167Z,19.00
2023-04-24T13:15:05.358Z,18.90
2023-04-24T13:17:39.497Z,18.90
2023-04-24T13:20:06.917Z,19.00
2023-04-24T13:22:33.587Z,19.00
2023-04-24T13:25:00.640Z,19.10
2023-04-24T13:27:27.333Z,19.40
2023-04-24T13:29:54.044Z,20.10
2023-04-24T13:32:20.891Z,20.80
2023-04-24T13:34:47.578Z,21.00
2023-04-24T13:37:14.202Z,20.50
2023-04-24T13:39:42.355Z,19.90
2023-04-24T13:42:09.659Z,20.00
2023-04-24T13:44:36.468Z,20.70
2023-04-24T13:47:03.617Z,21.10
2023-04-24T13:49:30.535Z,20.90
2023-04-24T13:51:57.857Z,20.70
2023-04-24T13:54:26.696Z,20.90
2023-04-24T13:56:53.824Z,21.30
2023-04-24T13:59:23.570Z,21.80
2023-04-24T14:01:50.513Z,21.70
2023-04-24T14:04:17.755Z,20.70
2023-04-24T14:06:45.183Z,19.90
2023-04-24T14:09:11.868Z,19.50
2023-04-24T14:11:38.978Z,19.50
2023-04-24T14:14:06.308Z,19.40
2023-04-24T14:16:33.158Z,19.50
2023-04-24T14:18:59.930Z,19.70
2023-04-24T14:21:26.585Z,20.20
2023-04-24T14:23:53.203Z,20.90
2023-04-24T14:26:20.711Z,21.60
2023-04-24T14:28:47.504Z,21.40
2023-04-24T14:31:14.245Z,21.30
2023-04-24T14:33:41.196Z,21.70
2023-04-24T14:36:07.921Z,21.80
2023-04-24T14:38:35.442Z,21.30
2023-04-24T14:43:33.655Z,20.90
2023-04-24T14:46:00.433Z,20.00
2023-04-24T14:48:27.120Z,19.70
2023-04-24T14:50:53.832Z,19.70
2023-04-24T14:53:20.416Z,19.80
2023-04-24T14:55:47.168Z,20.00
2023-04-24T14:58:13.933Z,19.90
2023-04-24T15:00:40.585Z,20.10
2023-04-24T15:03:08.399Z,20.20
2023-04-24T15:05:35.741Z,20.20
2023-04-24T15:08:02.731Z,20.40
2023-04-24T15:10:30.780Z,20.40
2023-04-24T15:12:57.568Z,20.60
2023-04-24T15:15:24.207Z,20.50
2023-04-24T15:17:51.027Z,20.60
2023-04-24T15:20:18.900Z,20.00
2023-04-24T15:22:45.631Z,19.90
2023-04-24T15:25:12.411Z,20.00
2023-04-24T15:27:46.308Z,19.80
2023-04-24T15:30:14.046Z,20.00
2023-04-24T15:32:40.949Z,19.70
2023-04-24T15:35:10.159Z,19.90
2023-04-24T15:37:38.052Z,20.20
2023-04-24T15:40:06.457Z,20.50
2023-04-24T15:42:33.318Z,20.90
2023-04-24T15:45:00.089Z,20.40
2023-04-24T15:47:27.211Z,20.40
2023-04-24T15:49:54.701Z,20.50
2023-04-24T15:52:21.838Z,20.20
2023-04-24T15:54:48.705Z,20.20
2023-04-24T15:57:15.570Z,20.00
2023-04-24T15:59:42.363Z,19.70
2023-04-24T16:02:10.465Z,19.50
2023-04-24T16:04:37.598Z,19.60
2023-04-24T16:07:04.352Z,19.50
2023-04-24T16:09:31.236Z,19.30
2023-04-24T16:11:58.237Z,19.00
2023-04-24T16:14:25.207Z,18.60
2023-04-24T16:16:51.888Z,18.00
2023-04-24T16:19:18.650Z,17.90
2023-04-24T16:21:45.617Z,17.80
2023-04-24T16:24:12.310Z,17.90
2023-04-24T16:26:39.713Z,17.60
2023-04-24T16:29:06.421Z,17.10
2023-04-24T16:31:33.352Z,17.10
2023-04-24T16:34:00.043Z,17.00
2023-04-24T16:36:26.965Z,16.80
2023-04-24T16:38:53.614Z,16.80
2023-04-24T16:41:20.459Z,16.80
2023-04-24T16:43:47.103Z,16.70
2023-04-24T16:46:13.794Z,16.60
2023-04-24T16:48:40.624Z,16.50
2023-04-24T16:51:07.254Z,16.30
2023-04-24T16:53:34.004Z,16.30
2023-04-24T16:56:00.890Z,16.20
2023-04-24T16:58:27.785Z,16.10
2023-04-24T17:00:54.458Z,16.00
2023-04-24T17:03:21.674Z,16.00
2023-04-24T17:05:48.876Z,16.00
2023-04-24T17:08:15.890Z,16.00
2023-04-24T17:10:42.731Z,15.90
2023-04-24T17:13:09.656Z,15.80
2023-04-24T17:15:36.451Z,15.80
2023-04-24T17:18:04.516Z,15.70
2023-04-24T17:20:31.313Z,15.60
2023-04-24T17:22:57.953Z,15.50
2023-04-24T17:25:24.780Z,15.40
2023-04-24T17:27:51.626Z,14.80
2023-04-24T17:30:18.286Z,14.50
2023-04-24T17:32:45.101Z,14.30
2023-04-24T17:35:11.991Z,14.20
2023-04-24T17:37:39.059Z,14.20
2023-04-24T17:40:06.452Z,14.30
2023-04-24T17:42:33.190Z,14.20
2023-04-24T17:45:00.304Z,14.20
2023-04-24T17:47:27.462Z,13.90
2023-04-24T17:49:54.270Z,13.80
2023-04-24T17:52:20.999Z,13.80
2023-04-24T17:54:49.650Z,13.80
2023-04-24T17:57:16.758Z,13.70
2023-04-24T17:59:43.630Z,13.60
2023-04-24T18:02:10.517Z,13.50
2023-04-24T18:04:39.277Z,13.40
2023-04-24T18:07:06.427Z,13.30
2023-04-24T18:09:33.073Z,13.30
2023-04-24T18:11:59.757Z,13.10
2023-04-24T18:14:28.517Z,13.00
2023-04-24T18:16:56.936Z,13.00
2023-04-24T18:19:25.179Z,13.00
2023-04-24T18:21:51.823Z,12.90
2023-04-24T18:24:19.133Z,12.90
2023-04-24T18:26:45.763Z,12.90
2023-04-24T18:29:12.417Z,12.80
2023-04-24T18:31:39.323Z,12.80
2023-04-24T18:34:06.280Z,12.80
2023-04-24T18:36:33.189Z,12.70
2023-04-24T18:38:59.947Z,12.60
2023-04-24T18:41:26.683Z,12.50
2023-04-24T18:43:53.316Z,12.40
2023-04-24T18:46:20.112Z,12.40
2023-04-24T18:48:47.107Z,12.30
2023-04-24T18:51:14.067Z,12.30
2023-04-24T18:53:40.861Z,12.30
2023-04-24T18:56:07.568Z,12.20
2023-04-24T18:58:34.339Z,12.10
2023-04-24T19:01:01.145Z,12.10
2023-04-24T19:03:29.810Z,12.00
2023-04-24T19:05:56.898Z,12.00
2023-04-24T19:08:23.485Z,12.00
2023-04-24T19:10:51.221Z,11.90
2023-04-24T19:13:17.911Z,11.90
2023-04-24T19:15:44.591Z,11.80
2023-04-24T19:18:11.357Z,11.70
2023-04-24T19:20:38.068Z,11.60
2023-04-24T19:23:04.831Z,11.50
2023-04-24T19:25:31.489Z,11.50
2023-04-24T19:27:58.307Z,11.40
2023-04-24T19:30:25.010Z,11.30
2023-04-24T19:32:51.770Z,11.20
2023-04-24T19:35:18.479Z,11.20
2023-04-24T19:37:45.270Z,11.10
2023-04-24T19:40:12.774Z,11.10
2023-04-24T19:42:44.300Z,11.00
2023-04-24T19:45:12.747Z,11.10
2023-04-24T19:47:39.817Z,11.10
2023-04-24T19:50:09.531Z,11.00
2023-04-24T19:52:36.261Z,11.00
2023-04-24T19:55:03.293Z,10.90
2023-04-24T19:57:30.038Z,10.90
2023-04-24T19:59:56.736Z,10.90
2023-04-24T20:02:23.556Z,10.80
2023-04-24T20:04:50.699Z,10.80
2023-04-24T20:07:17.402Z,10.70
2023-04-24T20:09:44.045Z,10.70
2023-04-24T20:12:10.851Z,10.70
2023-04-24T20:14:37.606Z,10.60
2023-04-24T20:17:04.273Z,10.60
2023-04-24T20:19:30.940Z,10.50
2023-04-24T20:21:57.766Z,10.40
2023-04-24T20:24:24.541Z,10.40
2023-04-24T20:26:51.294Z,10.40
2023-04-24T20:29:17.951Z,10.30
2023-04-24T20:31:44.799Z,10.30
2023-04-24T20:34:11.945Z,10.20
2023-04-24T20:36:38.806Z,10.20
2023-04-24T20:39:06.854Z,10.10
2023-04-24T20:41:34.022Z,10.10
2023-04-24T20:44:00.901Z,10.10
2023-04-24T20:46:27.674Z,10.10
2023-04-24T20:48:54.295Z,10.00
2023-04-24T20:51:20.932Z,10.00
2023-04-24T20:53:49.514Z,10.00
2023-04-24T20:56:16.763Z,9.90
2023-04-24T20:58:46.978Z,9.90
2023-04-24T21:01:14.866Z,9.90
2023-04-24T21:03:41.909Z,9.90
2023-04-24T21:06:09.770Z,9.90
2023-04-24T21:08:37.970Z,9.90
2023-04-24T21:11:05.069Z,9.90
2023-04-24T21:13:31.869Z,9.90
2023-04-24T21:15:59.018Z,9.90
2023-04-24T21:18:26.451Z,9.80
2023-04-24T21:20:53.644Z,9.90
2023-04-24T21:23:20.474Z,9.80
2023-04-24T21:25:47.588Z,9.80
2023-04-24T21:28:14.392Z,9.80
2023-04-24T21:30:41.161Z,9.70
2023-04-24T21:33:07.951Z,9.70
2023-04-24T21:35:35.180Z,9.70
2023-04-24T21:38:01.993Z,9.70
2023-04-24T21:40:29.095Z,9.60
2023-04-24T21:42:56.576Z,9.60
2023-04-24T21:45:23.396Z,9.50
2023-04-24T21:47:50.070Z,9.50
2023-04-24T21:50:16.757Z,9.50
2023-04-24T21:52:43.524Z,9.40
2023-04-24T21:55:10.306Z,9.40
2023-04-24T21:57:36.987Z,9.40
2023-04-24T22:00:07.388Z,9.30
2023-04-24T22:02:35.090Z,9.30
2023-04-24T22:05:04.461Z,9.30
2023-04-24T22:07:34.450Z,9.20
2023-04-24T22:10:01.242Z,9.10
2023-04-24T22:12:28.153Z,9.10
2023-04-24T22:14:54.789Z,9.00
2023-04-24T22:17:21.830Z,9.00
2023-04-24T22:19:48.419Z,9.00
2023-04-24T22:22:15.155Z,8.90
2023-04-24T22:24:41.847Z,8.90
2023-04-24T22:27:08.667Z,8.90
2023-04-24T22:29:35.605Z,8.80
2023-04-24T22:32:02.968Z,8.80
2023-04-24T22:34:29.555Z,8.80
2023-04-24T22:36:56.210Z,8.70
2023-04-24T22:39:22.888Z,8.70
2023-04-24T22:41:49.539Z,8.60
2023-04-24T22:44:16.529Z,8.70
2023-04-24T22:46:43.437Z,8.60
2023-04-24T22:49:10.290Z,8.60
2023-04-24T22:51:37.318Z,8.60
2023-04-24T22:54:05.021Z,8.50
2023-04-24T22:56:32.075Z,8.50
2023-04-24T22:58:58.956Z,8.40
2023-04-24T23:01:27.355Z,8.40
2023-04-24T23:03:54.781Z,8.40
2023-04-24T23:06:21.943Z,8.30
2023-04-24T23:08:49.034Z,8.30
2023-04-24T23:11:15.764Z,8.20
2023-04-24T23:13:42.548Z,8.20
2023-04-24T23:16:09.219Z,8.20
2023-04-24T23:18:36.210Z,8.20
2023-04-24T23:21:03.298Z,8.10
2023-04-24T23:23:29.996Z,8.20
2023-04-24T23:25:57.026Z,8.10
2023-04-24T23:28:23.766Z,8.10
2023-04-24T23:30:50.478Z,8.10
2023-04-24T23:33:17.194Z,8.10
2023-04-24T23:35:43.837Z,8.10
2023-04-24T23:38:11.081Z,8.10
2023-04-24T23:40:37.754Z,8.00
2023-04-24T23:43:08.040Z,8.00
2023-04-24T23:45:35.796Z,8.10
2023-04-24T23:48:03.375Z,8.10
2023-04-24T23:50:30.160Z,8.10
2023-04-24T23:52:56.842Z,8.10
2023-04-24T23:55:23.576Z,8.10
2023-04-24T23:57:50.366Z,8.10
